Cadmus, Michigan
Current Conditions -  °F | °C
As of 8:53 PM on Friday 24 Oct 2014 (Local Time) from KADG Reporting Station
Clear Clear  
Wind Chill: 50°   Ceiling: Unl
Heat Index: 50°   Visibility: 8mi
Dew Point: 45°   Wind: 0mph
Humidity: 83%   Direction: NA
Pressure: 30"   Gusts: NA
Location:  41.9076°N, 84.0644°W
Report Text: KADG 250053Z AUTO 00000KT 8SM CLR 10/07 A3000 RMK AO2 SLP165 T01000072
Loading
Personal Weather Stations






























Interactive Weather Map
Tropical Storm Tracking
New forecast layout! Learn more

10-Day Weather Forecast

Advertisements
Track Severe Weather on mobile